Time;durP1;ratioP1;P1;durP2;ratioP2;P2;SDS_P1;SDS_P2;PMS_P1;PMS_P2;Temp;Humidity;BMP_temperature;BMP_pressure;BME280_temperature;BME280_humidity;BME280_pressure;Samples;Min_cycle;Max_cycle;Signal;HPM_P1;HPM_P2
2022/12/05 00:00:08;;;;;;;;;;;;;;;1.29;100.00;101759.47;6216417;23;20014;-80
2022/12/05 00:02:33;;;;;;;;;;;;;;;1.31;100.00;101751.84;6216523;23;19912;-80
2022/12/05 00:04:59;;;;;;;;;;;;;;;1.31;100.00;101762.97;6214926;23;19915;-80
2022/12/05 00:07:24;;;;;;;;;;;;;;;1.31;100.00;101755.28;6216449;23;20327;-80
2022/12/05 00:09:49;;;;;;;;;;;;;;;1.34;100.00;101767.31;6215907;23;19979;-80
2022/12/05 00:12:15;;;;;;;;;;;;;;;1.34;100.00;101762.16;6215344;23;19943;-80
2022/12/05 00:14:40;;;;;;;;;;;;;;;1.33;100.00;101765.56;6216165;23;20336;-80
2022/12/05 00:17:05;;;;;;;;;;;;;;;1.35;100.00;101761.38;6216013;23;19959;-80
2022/12/05 00:19:30;;;;;;;;;;;;;;;1.37;100.00;101757.13;6215331;23;19912;-80
2022/12/05 00:21:56;;;;;;;;;;;;;;;1.35;100.00;101763.94;6216029;23;19915;-80
2022/12/05 00:24:22;;;;;;;;;;;;;;;1.35;100.00;101761.38;6215467;23;20224;-80
2022/12/05 00:26:47;;;;;;;;;;;;;;;1.35;100.00;101763.94;6215891;23;19958;-80
2022/12/05 00:29:12;;;;;;;;;;;;;;;1.36;100.00;101763.09;6216246;23;19916;-80
2022/12/05 00:31:38;;;;;;;;;;;;;;;1.37;100.00;101755.44;6214824;23;19920;-80
2022/12/05 00:34:03;;;;;;;;;;;;;;;1.38;100.00;101764.88;6215494;23;19912;-80
2022/12/05 00:36:29;;;;;;;;;;;;;;;1.31;100.00;101736.41;6216198;23;19911;-80
2022/12/05 00:38:55;;;;;;;;;;;;;;;1.42;100.00;101752.13;6214643;23;19923;-80
2022/12/05 00:41:21;;;;;;;;;;;;;;;1.39;100.00;101748.63;6216046;23;19916;-80
2022/12/05 00:43:47;;;;;;;;;;;;;;;1.40;100.00;101755.50;6215649;23;19962;-80
2022/12/05 00:46:13;;;;;;;;;;;;;;;1.41;100.00;101743.56;6215210;23;19912;-80
2022/12/05 00:48:38;;;;;;;;;;;;;;;1.42;100.00;101747.84;6215834;23;19982;-80
2022/12/05 00:51:14;;;;;;;;;;;;;;;1.40;100.00;101752.06;6216206;23;20324;-80
2022/12/05 00:53:40;;;;;;;;;;;;;;;1.39;100.00;101750.34;6214776;23;19916;-80
2022/12/05 00:56:06;;;;;;;;;;;;;;;1.40;100.00;101752.94;6216084;23;20217;-80
2022/12/05 00:58:32;;;;;;;;;;;;;;;1.41;100.00;101748.69;6215531;23;19994;-80
2022/12/05 01:01:04;;;;;;;;;;;;;;;1.42;100.00;101757.28;6214347;23;20370;-80
2022/12/05 01:03:29;;;;;;;;;;;;;;;1.42;100.00;101755.56;6214500;23;19919;-80
2022/12/05 01:05:54;;;;;;;;;;;;;;;1.42;100.00;101755.56;6215049;23;19983;-80
2022/12/05 01:08:19;;;;;;;;;;;;;;;1.50;100.00;101750.63;6214206;23;19923;-80
2022/12/05 01:10:51;;;;;;;;;;;;;;;1.46;100.00;101759.09;6215669;23;19936;-80
2022/12/05 01:13:16;;;;;;;;;;;;;;;1.47;100.00;101751.44;6215585;23;20309;-80
2022/12/05 01:15:41;;;;;;;;;;;;;;;1.44;100.00;101761.63;6214450;23;19919;-80
2022/12/05 01:18:06;;;;;;;;;;;;;;;1.45;100.00;101765.06;6215679;23;19911;-80
2022/12/05 01:20:32;;;;;;;;;;;;;;;1.46;100.00;101770.25;6215520;23;20335;-80
2022/12/05 01:22:57;;;;;;;;;;;;;;;1.50;100.00;101755.78;6214709;23;19962;-80
2022/12/05 01:25:22;;;;;;;;;;;;;;;1.47;100.00;101774.56;6215719;23;19935;-80
2022/12/05 01:27:47;;;;;;;;;;;;;;;1.47;100.00;101773.66;6214571;23;20313;-80
2022/12/05 01:30:12;;;;;;;;;;;;;;;1.49;100.00;101772.91;6215336;23;19994;-80
2022/12/05 01:32:38;;;;;;;;;;;;;;;1.47;100.00;101768.53;6215678;23;19995;-80
2022/12/05 01:35:03;;;;;;;;;;;;;;;1.46;100.00;101771.94;6214352;23;20323;-80
2022/12/05 01:37:31;;;;;;;;;;;;;;;1.48;100.00;101767.72;6215682;22;19924;-80
2022/12/05 01:39:56;;;;;;;;;;;;;;;1.47;100.00;101773.66;6214780;23;20316;-80
2022/12/05 01:42:22;;;;;;;;;;;;;;;1.47;100.00;101777.16;6214414;23;19912;-80
2022/12/05 01:44:58;;;;;;;;;;;;;;;1.49;100.00;101780.59;6243574;22;19994;-80
2022/12/05 01:47:24;;;;;;;;;;;;;;;1.49;100.00;101783.19;6276347;22;19911;-80
2022/12/05 01:49:49;;;;;;;;;;;;;;;1.49;100.00;101783.19;6275292;22;19938;-80
2022/12/05 01:52:19;;;;;;;;;;;;;;;1.50;100.00;101779.78;6276426;22;19911;-80
2022/12/05 01:54:45;;;;;;;;;;;;;;;1.51;100.00;101784.09;6275575;22;20235;-80
2022/12/05 01:57:12;;;;;;;;;;;;;;;1.52;100.00;101793.53;6275589;22;19911;-80
2022/12/05 01:59:40;;;;;;;;;;;;;;;1.53;100.00;101792.72;6276642;22;19911;-80
2022/12/05 02:02:06;;;;;;;;;;;;;;;1.52;100.00;101793.53;6276402;22;19964;-80
2022/12/05 02:04:34;;;;;;;;;;;;;;;1.54;100.00;101799.63;6274683;22;19912;-80
2022/12/05 02:06:59;;;;;;;;;;;;;;;1.52;100.00;101787.53;6276073;22;19915;-80
2022/12/05 02:09:28;;;;;;;;;;;;;;;1.52;100.00;101790.09;6275932;22;20384;-80
2022/12/05 02:11:55;;;;;;;;;;;;;;;1.52;100.00;101796.13;6275277;22;19911;-80
2022/12/05 02:14:33;;;;;;;;;;;;;;;1.53;100.00;101792.72;6275160;22;20011;-80
2022/12/05 02:17:21;;;;;;;;;;;;;;;1.53;100.00;101792.72;6274056;22;19922;-80
2022/12/05 02:19:47;;;;;;;;;;;;;;;1.53;100.00;101792.72;6272859;22;19911;-80
2022/12/05 02:22:41;;;;;;;;;;;;;;;1.55;100.00;101793.63;6275743;22;19912;-80
2022/12/05 02:25:25;;;;;;;;;;;;;;;1.55;100.00;101795.34;6242109;22;19964;-80
2022/12/05 02:27:59;;;;;;;;;;;;;;;1.55;100.00;101792.78;6276252;22;20315;-79
2022/12/05 02:30:25;;;;;;;;;;;;;;;1.56;100.00;101784.22;6278453;22;19911;-80
2022/12/05 02:33:09;;;;;;;;;;;;;;;1.55;100.00;101785.94;6276992;22;20008;-80
2022/12/05 02:35:34;;;;;;;;;;;;;;;1.61;100.00;101785.25;6278413;22;19915;-80
2022/12/05 02:38:08;;;;;;;;;;;;;;;1.57;100.00;101784.28;6277210;22;19933;-80
2022/12/05 02:40:39;;;;;;;;;;;;;;;1.57;100.00;101784.28;6278124;22;19915;-80
2022/12/05 02:43:12;;;;;;;;;;;;;;;1.57;100.00;101785.94;6278487;22;19965;-80
2022/12/05 02:45:38;;;;;;;;;;;;;;;1.57;100.00;101785.94;6276365;22;20366;-79
2022/12/05 02:48:05;;;;;;;;;;;;;;;1.56;100.00;101777.38;6278118;22;19918;-80
2022/12/05 02:50:32;;;;;;;;;;;;;;;1.55;100.00;101785.94;6278007;22;19919;-80
2022/12/05 02:53:00;;;;;;;;;;;;;;;1.57;100.00;101786.84;6276113;22;19915;-80
2022/12/05 02:55:27;;;;;;;;;;;;;;;1.58;100.00;101785.16;6277505;22;19911;-80
2022/12/05 02:57:55;;;;;;;;;;;;;;;1.58;100.00;101786.00;6276203;22;19986;-80
2022/12/05 03:00:20;;;;;;;;;;;;;;;1.58;100.00;101791.16;6276507;22;20308;-80
2022/12/05 03:02:47;;;;;;;;;;;;;;;1.59;100.00;101792.03;6277604;22;19938;-80
2022/12/05 03:05:15;;;;;;;;;;;;;;;1.60;100.00;101799.78;6278179;22;19912;-80
2022/12/05 03:07:43;;;;;;;;;;;;;;;1.62;100.00;101797.25;6276732;22;19911;-80
2022/12/05 03:10:09;;;;;;;;;;;;;;;1.64;100.00;101791.34;6277706;22;19922;-80
2022/12/05 03:12:38;;;;;;;;;;;;;;;1.62;100.00;101797.25;6277844;22;19907;-80
2022/12/05 03:15:04;;;;;;;;;;;;;;;1.61;100.00;101792.94;6276897;22;19915;-80
2022/12/05 03:17:32;;;;;;;;;;;;;;;1.61;100.00;101786.09;6277964;22;19991;-80
2022/12/05 03:20:03;;;;;;;;;;;;;;;1.63;100.00;101789.59;6277510;22;19915;-80
2022/12/05 03:22:35;;;;;;;;;;;;;;;1.64;100.00;101793.03;6277181;22;19912;-80
2022/12/05 03:25:01;;;;;;;;;;;;;;;1.66;100.00;101783.66;6277497;22;19907;-80
2022/12/05 03:27:26;;;;;;;;;;;;;;;1.64;100.00;101781.06;6276982;22;20304;-80
2022/12/05 03:29:57;;;;;;;;;;;;;;;1.64;100.00;101780.19;6277586;22;19986;-80
2022/12/05 03:32:40;;;;;;;;;;;;;;;1.66;100.00;101782.78;6277959;22;20006;-80
2022/12/05 03:35:05;;;;;;;;;;;;;;;1.66;100.00;101793.94;6276791;22;19907;-80
2022/12/05 03:37:42;;;;;;;;;;;;;;;1.65;100.00;101784.50;6277795;22;20316;-80
2022/12/05 03:40:26;;;;;;;;;;;;;;;1.66;100.00;101783.66;6276572;22;19998;-80
2022/12/05 03:43:01;;;;;;;;;;;;;;;1.66;100.00;101783.66;6276447;22;19915;-80
2022/12/05 03:45:29;;;;;;;;;;;;;;;1.71;100.00;101773.50;6277121;22;19919;-81
2022/12/05 03:48:04;;;;;;;;;;;;;;;1.69;100.00;101776.03;6277257;22;19933;-80
2022/12/05 03:50:29;;;;;;;;;;;;;;;1.68;100.00;101771.72;6276614;22;19957;-80
2022/12/05 03:52:58;;;;;;;;;;;;;;;1.70;100.00;101777.78;6277139;22;19919;-80
2022/12/05 03:55:25;;;;;;;;;;;;;;;1.70;100.00;101780.34;6276644;22;19990;-80
2022/12/05 03:58:13;;;;;;;;;;;;;;;1.70;100.00;101777.78;6276887;22;19917;-80
2022/12/05 04:00:41;;;;;;;;;;;;;;;1.70;100.00;101785.50;6255222;22;20370;-80
2022/12/05 04:03:10;;;;;;;;;;;;;;;1.72;100.00;101788.97;6276540;22;19922;-80
2022/12/05 04:05:43;;;;;;;;;;;;;;;1.73;100.00;101790.69;6277456;22;19911;-80
2022/12/05 04:08:16;;;;;;;;;;;;;;;1.73;100.00;101792.41;6277430;22;19957;-80
2022/12/05 04:10:49;;;;;;;;;;;;;;;1.74;100.00;101787.31;6276093;22;19911;-80
2022/12/05 04:13:23;;;;;;;;;;;;;;;1.74;100.00;101789.03;6277273;22;19911;-80
2022/12/05 04:18:41;;;;;;;;;;;;;;;1.73;100.00;101788.13;6275366;22;19918;-81
2022/12/05 04:25:31;;;;;;;;;;;;;;;1.74;100.00;101799.31;6275722;22;19918;-80
2022/12/05 04:26:39;;;;;;;;;;;;;;;1.74;100.00;101791.59;6276743;22;19907;-80
2022/12/05 04:29:13;;;;;;;;;;;;;;;1.75;100.00;101793.31;6277069;22;20270;-80
2022/12/05 04:31:43;;;;;;;;;;;;;;;1.74;100.00;101797.59;6275621;22;19908;-80
2022/12/05 04:34:11;;;;;;;;;;;;;;;1.74;100.00;101795.03;6276361;22;19918;-80
2022/12/05 04:36:39;;;;;;;;;;;;;;;1.75;100.00;101794.19;6276521;22;19911;-80
2022/12/05 04:39:19;;;;;;;;;;;;;;;1.75;100.00;101796.75;6275721;22;19915;-80
2022/12/05 04:41:48;;;;;;;;;;;;;;;1.76;100.00;101800.19;6275857;22;19957;-80
2022/12/05 04:44:15;;;;;;;;;;;;;;;1.76;100.00;101795.94;6276213;22;19965;-80
2022/12/05 04:46:42;;;;;;;;;;;;;;;1.74;100.00;101805.31;6275339;22;19964;-80
2022/12/05 04:49:09;;;;;;;;;;;;;;;1.76;100.00;101810.50;6276522;22;20315;-80
2022/12/05 04:51:36;;;;;;;;;;;;;;;1.74;100.00;101802.75;6276085;22;19942;-80
2022/12/05 04:54:08;;;;;;;;;;;;;;;1.75;100.00;101803.59;6276471;22;19911;-80
2022/12/05 04:56:36;;;;;;;;;;;;;;;1.74;100.00;101801.88;6276622;22;19964;-80
2022/12/05 04:59:02;;;;;;;;;;;;;;;1.75;100.00;101808.75;6275243;22;19911;-80
2022/12/05 05:01:35;;;;;;;;;;;;;;;1.74;100.00;101801.88;6275738;22;20229;-80
2022/12/05 05:04:03;;;;;;;;;;;;;;;1.73;100.00;101800.97;6275977;22;19915;-80
2022/12/05 05:06:29;;;;;;;;;;;;;;;1.73;100.00;101807.81;6275688;22;19915;-80
2022/12/05 05:08:55;;;;;;;;;;;;;;;1.73;100.00;101807.81;6276301;22;20316;-80
2022/12/05 05:11:28;;;;;;;;;;;;;;;1.70;100.00;101810.31;6275889;22;19918;-80
2022/12/05 05:13:54;;;;;;;;;;;;;;;1.69;100.00;101803.44;6275060;22;20319;-80
2022/12/05 05:16:24;;;;;;;;;;;;;;;1.70;100.00;101810.31;6275905;22;19916;-80
2022/12/05 05:18:49;;;;;;;;;;;;;;;1.71;100.00;101817.22;6275723;22;19915;-80
2022/12/05 05:21:22;;;;;;;;;;;;;;;1.71;100.00;101819.78;6275350;22;19934;-80
2022/12/05 05:23:48;;;;;;;;;;;;;;;1.71;100.00;101814.66;6275749;22;19911;-80
2022/12/05 05:26:13;;;;;;;;;;;;;;;1.72;100.00;101822.38;6276467;22;19965;-80
2022/12/05 05:28:38;;;;;;;;;;;;;;;1.74;100.00;101818.16;6274833;22;20247;-80
2022/12/05 05:31:04;;;;;;;;;;;;;;;1.74;100.00;101817.31;6276180;22;19911;-80
2022/12/05 05:33:30;;;;;;;;;;;;;;;1.75;100.00;101824.19;6275857;22;20220;-80
2022/12/05 05:35:55;;;;;;;;;;;;;;;1.76;100.00;101818.19;6274126;22;19985;-80
2022/12/05 05:38:20;;;;;;;;;;;;;;;1.76;100.00;101813.06;6276087;22;19915;-80
2022/12/05 05:40:46;;;;;;;;;;;;;;;1.76;100.00;101815.63;6275396;22;19921;-80
2022/12/05 05:43:11;;;;;;;;;;;;;;;1.79;100.00;101810.56;6275348;22;20339;-80
2022/12/05 05:45:36;;;;;;;;;;;;;;;1.78;100.00;101813.97;6275801;22;19969;-80
2022/12/05 05:48:01;;;;;;;;;;;;;;;1.80;100.00;101820.06;6274912;22;19912;-80
2022/12/05 05:50:27;;;;;;;;;;;;;;;1.82;100.00;101824.38;6275953;22;19915;-80
2022/12/05 05:52:52;;;;;;;;;;;;;;;1.81;100.00;101821.78;6275078;22;20346;-80
2022/12/05 05:55:18;;;;;;;;;;;;;;;1.82;100.00;101831.22;6275051;22;19965;-80
2022/12/05 05:57:43;;;;;;;;;;;;;;;1.82;100.00;101829.53;6276175;22;19919;-80
2022/12/05 06:00:08;;;;;;;;;;;;;;;1.81;100.00;101827.78;6276575;22;19938;-80
2022/12/05 06:02:34;;;;;;;;;;;;;;;1.81;100.00;101825.22;6275567;22;19916;-80
2022/12/05 06:04:59;;;;;;;;;;;;;;;1.80;100.00;101830.34;6278422;22;19915;-80
2022/12/05 06:07:24;;;;;;;;;;;;;;;1.77;100.00;101835.38;6278518;22;20057;-80
2022/12/05 06:09:50;;;;;;;;;;;;;;;1.76;100.00;101826.78;6277527;22;19912;-80
2022/12/05 06:12:15;;;;;;;;;;;;;;;1.75;100.00;101834.47;6278750;22;20315;-80
2022/12/05 06:14:40;;;;;;;;;;;;;;;1.75;100.00;101831.88;6277777;22;20281;-80
2022/12/05 06:17:05;;;;;;;;;;;;;;;1.75;100.00;101831.88;6277880;22;19918;-80
2022/12/05 06:19:31;;;;;;;;;;;;;;;1.74;100.00;101838.75;6278723;22;19991;-80
2022/12/05 06:21:56;;;;;;;;;;;;;;;1.75;100.00;101829.31;6277800;22;20311;-80
2022/12/05 06:24:21;;;;;;;;;;;;;;;1.75;100.00;101834.47;6277554;22;19911;-79
2022/12/05 06:26:46;;;;;;;;;;;;;;;1.74;100.00;101840.44;6277673;22;19912;-79
2022/12/05 06:29:11;;;;;;;;;;;;;;;1.75;100.00;101834.47;6278477;22;19943;-80
2022/12/05 06:31:37;;;;;;;;;;;;;;;1.75;100.00;101839.59;6277518;22;19994;-80
2022/12/05 06:34:02;;;;;;;;;;;;;;;1.76;100.00;101838.75;6278182;22;20231;-80
2022/12/05 06:36:28;;;;;;;;;;;;;;;1.77;100.00;101836.25;6278427;22;19919;-80
2022/12/05 06:38:57;;;;;;;;;;;;;;;1.78;100.00;101840.56;6276770;22;19911;-80
2022/12/05 06:41:23;;;;;;;;;;;;;;;1.80;100.00;101838.91;6278141;22;19911;-80
2022/12/05 06:43:50;;;;;;;;;;;;;;;1.80;100.00;101838.06;6277726;22;19941;-80
2022/12/05 06:46:15;;;;;;;;;;;;;;;1.80;100.00;101838.06;6277047;22;19946;-80
2022/12/05 06:48:41;;;;;;;;;;;;;;;1.80;100.00;101838.06;6277925;22;19911;-80
2022/12/05 06:51:08;;;;;;;;;;;;;;;1.80;100.00;101838.91;6277842;22;19919;-80
2022/12/05 06:53:33;;;;;;;;;;;;;;;1.80;100.00;101840.63;6277858;22;19911;-80
2022/12/05 06:56:00;;;;;;;;;;;;;;;1.82;100.00;101844.09;6277844;22;20342;-80
2022/12/05 06:58:25;;;;;;;;;;;;;;;1.80;100.00;101844.06;6276571;22;20004;-80
2022/12/05 07:03:35;;;;;;;;;;;;;;;1.84;100.00;101855.31;6277496;22;19918;-80
2022/12/05 07:06:01;;;;;;;;;;;;;;;1.83;100.00;101850.97;6276977;22;19911;-80
2022/12/05 07:08:26;;;;;;;;;;;;;;;1.84;100.00;101852.72;6278007;22;20323;-80
2022/12/05 07:10:52;;;;;;;;;;;;;;;1.87;100.00;101856.25;6277653;22;19933;-80
2022/12/05 07:13:17;;;;;;;;;;;;;;;1.88;100.00;101865.69;6277110;22;19990;-80
2022/12/05 07:15:44;;;;;;;;;;;;;;;1.88;100.00;101857.13;6277653;22;19931;-80
2022/12/05 07:18:10;;;;;;;;;;;;;;;1.90;100.00;101868.34;6277799;22;19915;-80
2022/12/05 07:20:35;;;;;;;;;;;;;;;1.92;100.00;101865.78;6276696;22;19984;-80
2022/12/05 07:23:00;;;;;;;;;;;;;;;1.92;100.00;101868.38;6277001;22;19915;-80
2022/12/05 07:25:46;;;;;;;;;;;;;;;1.93;100.00;101873.56;6277940;22;19994;-80
2022/12/05 07:28:11;;;;;;;;;;;;;;;1.93;100.00;101885.53;6275019;22;19919;-80
2022/12/05 07:30:36;;;;;;;;;;;;;;;1.93;100.00;101877.81;6277899;22;19915;-80
2022/12/05 07:33:02;;;;;;;;;;;;;;;1.93;100.00;101883.84;6276885;22;19911;-80
2022/12/05 07:35:27;;;;;;;;;;;;;;;1.93;100.00;101881.28;6276749;22;19911;-80
2022/12/05 07:37:52;;;;;;;;;;;;;;;1.95;100.00;101889.03;6276724;22;20041;-80
2022/12/05 07:40:18;;;;;;;;;;;;;;;1.96;100.00;101885.63;6277126;22;19911;-80
2022/12/05 07:42:43;;;;;;;;;;;;;;;1.95;100.00;101889.91;6275933;22;19919;-80
2022/12/05 07:45:08;;;;;;;;;;;;;;;1.96;100.00;101881.38;6276764;22;19919;-80
2022/12/05 07:47:34;;;;;;;;;;;;;;;1.96;100.00;101886.50;6274311;22;19917;-80
2022/12/05 07:49:59;;;;;;;;;;;;;;;1.96;100.00;101881.38;6274067;22;19915;-80
2022/12/05 07:52:24;;;;;;;;;;;;;;;1.98;100.00;101889.97;6276058;22;19911;-80
2022/12/05 07:54:49;;;;;;;;;;;;;;;1.97;100.00;101889.94;6276389;22;19918;-80
2022/12/05 07:57:15;;;;;;;;;;;;;;;1.97;100.00;101893.38;6275109;22;20369;-80
2022/12/05 07:59:40;;;;;;;;;;;;;;;1.97;100.00;101897.66;6274799;22;19918;-81
2022/12/05 08:02:05;;;;;;;;;;;;;;;1.98;100.00;101900.28;6275630;22;20366;-80
2022/12/05 08:04:30;;;;;;;;;;;;;;;2.00;100.00;101897.75;6277434;22;20243;-80
2022/12/05 08:06:58;;;;;;;;;;;;;;;2.00;100.00;101902.91;6276153;22;20330;-80
2022/12/05 08:09:23;;;;;;;;;;;;;;;2.00;100.00;101901.19;6275855;22;19911;-80
2022/12/05 08:11:48;;;;;;;;;;;;;;;2.01;100.00;101896.91;6275828;22;19926;-80
2022/12/05 08:14:13;;;;;;;;;;;;;;;2.01;100.00;101897.78;6277362;22;20426;-79
2022/12/05 08:16:38;;;;;;;;;;;;;;;2.03;100.00;101908.13;6275623;22;19915;-81
2022/12/05 08:19:05;;;;;;;;;;;;;;;2.03;100.00;101914.16;6275031;22;20278;-80
2022/12/05 08:21:31;;;;;;;;;;;;;;;2.02;100.00;101914.94;6276665;22;19922;-80
2022/12/05 08:23:56;;;;;;;;;;;;;;;2.03;100.00;101918.44;6275504;22;20302;-80
2022/12/05 08:26:23;;;;;;;;;;;;;;;2.05;100.00;101920.19;6276185;22;19914;-80
2022/12/05 08:28:53;;;;;;;;;;;;;;;2.06;100.00;101923.63;6275592;22;19926;-80
2022/12/05 08:31:19;;;;;;;;;;;;;;;2.08;100.00;101928.00;6275242;22;19927;-80
2022/12/05 08:33:44;;;;;;;;;;;;;;;2.08;100.00;101924.56;6274886;22;19981;-80
2022/12/05 08:36:11;;;;;;;;;;;;;;;2.10;100.00;101930.63;6276018;22;19982;-79
2022/12/05 08:38:36;;;;;;;;;;;;;;;2.11;100.00;101938.38;6274618;22;19990;-79
2022/12/05 08:41:02;;;;;;;;;;;;;;;2.11;100.00;101933.22;6276189;22;20347;-79
2022/12/05 08:43:28;;;;;;;;;;;;;;;2.13;100.00;101929.84;6275375;22;19911;-79
2022/12/05 08:45:54;;;;;;;;;;;;;;;2.13;100.00;101932.44;6275025;22;19942;-78
2022/12/05 08:48:19;;;;;;;;;;;;;;;2.13;100.00;101925.56;6274935;22;19915;-79
2022/12/05 08:50:44;;;;;;;;;;;;;;;2.15;100.00;101933.31;6275266;22;20037;-78
2022/12/05 08:53:09;;;;;;;;;;;;;;;2.14;100.00;101934.16;6276576;22;19918;-79
2022/12/05 08:55:35;;;;;;;;;;;;;;;2.14;100.00;101934.16;6276929;22;19970;-78
2022/12/05 08:58:00;;;;;;;;;;;;;;;2.16;100.00;101935.06;6274896;22;19918;-79
2022/12/05 09:00:25;;;;;;;;;;;;;;;2.16;100.00;101937.63;6273987;22;20344;-79
2022/12/05 09:02:51;;;;;;;;;;;;;;;2.17;100.00;101937.69;6274825;22;19964;-78
2022/12/05 09:05:16;;;;;;;;;;;;;;;2.18;100.00;101951.41;6274833;22;19947;-79
2022/12/05 09:07:41;;;;;;;;;;;;;;;2.20;100.00;101944.63;6275442;22;19918;-79
2022/12/05 09:10:07;;;;;;;;;;;;;;;2.20;100.00;101950.63;6275979;22;19957;-79
2022/12/05 09:12:35;;;;;;;;;;;;;;;2.21;100.00;101952.38;6275107;22;19918;-79
2022/12/05 09:15:00;;;;;;;;;;;;;;;2.20;100.00;101955.78;6275825;22;19915;-77
2022/12/05 09:17:25;;;;;;;;;;;;;;;2.23;100.00;101958.44;6275688;22;19969;-79
2022/12/05 09:19:51;;;;;;;;;;;;;;;2.24;100.00;101957.59;6273493;22;20274;-79
2022/12/05 09:22:16;;;;;;;;;;;;;;;2.26;100.00;101953.41;6274716;22;19911;-79
2022/12/05 09:24:41;;;;;;;;;;;;;;;2.28;100.00;101956.00;6275542;22;20234;-79
2022/12/05 09:27:06;;;;;;;;;;;;;;;2.30;100.00;101960.34;6275201;22;19911;-79
2022/12/05 09:29:32;;;;;;;;;;;;;;;2.36;100.00;101969.09;6276210;22;19911;-79
2022/12/05 09:31:57;;;;;;;;;;;;;;;2.37;100.00;101966.56;6275398;22;19915;-79
2022/12/05 09:34:24;;;;;;;;;;;;;;;2.39;100.00;101964.91;6275183;22;19946;-80
2022/12/05 09:36:51;;;;;;;;;;;;;;;2.41;100.00;101965.78;6275642;22;19915;-80
2022/12/05 09:39:16;;;;;;;;;;;;;;;2.46;100.00;101968.53;6276065;22;19989;-80
2022/12/05 09:42:08;;;;;;;;;;;;;;;2.50;100.00;101972.91;6274685;22;19946;-80
2022/12/05 09:44:34;;;;;;;;;;;;;;;2.53;100.00;101973.88;6274288;22;19921;-79
2022/12/05 09:47:22;;;;;;;;;;;;;;;2.53;100.00;101973.88;6274286;22;19981;-80
2022/12/05 09:49:56;;;;;;;;;;;;;;;2.50;100.00;101973.78;6254651;22;19911;-79
2022/12/05 09:52:24;;;;;;;;;;;;;;;2.49;100.00;101977.19;6276700;22;19911;-80
2022/12/05 09:54:50;;;;;;;;;;;;;;;2.48;100.00;101975.44;6274187;22;19922;-81
2022/12/05 09:57:17;;;;;;;;;;;;;;;2.48;100.00;101974.56;6276106;22;19982;-80
2022/12/05 09:59:42;;;;;;;;;;;;;;;2.48;100.00;101980.56;6275252;22;19963;-80
2022/12/05 10:02:20;;;;;;;;;;;;;;;2.47;100.00;101978.84;6273921;22;19941;-81
2022/12/05 10:04:55;;;;;;;;;;;;;;;2.49;100.00;101974.63;6273523;22;19916;-80
2022/12/05 10:07:26;;;;;;;;;;;;;;;2.49;100.00;101973.75;6276038;22;19911;-82
2022/12/05 10:10:03;;;;;;;;;;;;;;;2.49;100.00;101971.19;6275449;22;19911;-81
2022/12/05 10:12:42;;;;;;;;;;;;;;;2.49;100.00;101973.75;6275664;22;19918;-80
2022/12/05 10:15:19;;;;;;;;;;;;;;;2.49;100.00;101976.31;6275942;22;19911;-81
2022/12/05 10:17:59;;;;;;;;;;;;;;;2.51;100.00;101978.09;6276228;22;19939;-82
2022/12/05 10:20:27;;;;;;;;;;;;;;;2.56;100.00;101976.53;6276207;22;20330;-81
2022/12/05 10:22:56;;;;;;;;;;;;;;;2.56;100.00;101973.94;6274877;22;20715;-80
2022/12/05 10:25:25;;;;;;;;;;;;;;;2.60;100.00;101971.47;6275105;22;19911;-80
2022/12/05 10:27:52;;;;;;;;;;;;;;;2.58;100.00;101974.88;6274998;22;20243;-80
2022/12/05 10:30:18;;;;;;;;;;;;;;;2.60;100.00;101971.47;6273524;22;19919;-80
2022/12/05 10:32:50;;;;;;;;;;;;;;;2.62;100.00;101977.53;6275352;22;19920;-80
2022/12/05 10:35:21;;;;;;;;;;;;;;;2.61;100.00;101986.06;6275995;22;19965;-79
2022/12/05 10:37:57;;;;;;;;;;;;;;;2.58;100.00;101979.13;6274699;22;19915;-79
2022/12/05 10:40:26;;;;;;;;;;;;;;;2.57;100.00;101983.41;6275676;22;20345;-80
2022/12/05 10:42:51;;;;;;;;;;;;;;;2.59;100.00;101973.19;6275537;22;19912;-80
2022/12/05 10:45:19;;;;;;;;;;;;;;;2.57;100.00;101975.69;6275086;22;19915;-80
2022/12/05 10:47:44;;;;;;;;;;;;;;;2.56;100.00;101971.38;6275829;22;19911;-81
2022/12/05 10:50:21;;;;;;;;;;;;;;;2.59;100.00;101978.31;6277432;22;20033;-81
2022/12/05 10:52:47;;;;;;;;;;;;;;;2.62;100.00;101980.97;6277461;22;19911;-81
2022/12/05 10:55:15;;;;;;;;;;;;;;;2.62;100.00;101983.56;6277957;22;19919;-81
2022/12/05 10:57:40;;;;;;;;;;;;;;;2.62;100.00;101982.69;6273574;22;19915;-81
2022/12/05 11:00:10;;;;;;;;;;;;;;;2.63;100.00;101979.28;6276885;22;20327;-81
2022/12/05 11:02:36;;;;;;;;;;;;;;;2.63;100.00;101980.13;6276262;22;19917;-80
2022/12/05 11:05:02;;;;;;;;;;;;;;;2.62;100.00;101978.41;6273373;22;20378;-81
2022/12/05 11:07:29;;;;;;;;;;;;;;;2.65;100.00;101975.03;6275158;22;19958;-80
2022/12/05 11:09:55;;;;;;;;;;;;;;;2.66;100.00;101971.63;6274981;22;20329;-80
2022/12/05 11:12:22;;;;;;;;;;;;;;;2.72;100.00;101969.22;6273817;22;20381;-81
2022/12/05 11:14:55;;;;;;;;;;;;;;;2.77;100.00;101968.50;6275386;22;19912;-80
2022/12/05 11:17:26;;;;;;;;;;;;;;;2.84;100.00;101964.38;6278203;22;19907;-82
2022/12/05 11:19:51;;;;;;;;;;;;;;;2.86;100.00;101967.88;6274575;22;19934;-81
2022/12/05 11:22:16;;;;;;;;;;;;;;;2.87;100.00;101968.75;6276253;22;20453;-81
2022/12/05 11:24:41;;;;;;;;;;;;;;;2.89;100.00;101967.97;6275099;22;19938;-75
2022/12/05 11:27:15;;;;;;;;;;;;;;;2.90;100.00;101959.38;6276164;22;19942;-82
2022/12/05 11:29:41;;;;;;;;;;;;;;;2.90;100.00;101974.84;6277258;22;19973;-79
2022/12/05 11:32:18;;;;;;;;;;;;;;;2.93;100.00;101956.03;6276085;22;19915;-82
2022/12/05 11:34:50;;;;;;;;;;;;;;;2.92;100.00;101968.03;6276544;22;20256;-81
2022/12/05 11:37:21;;;;;;;;;;;;;;;2.91;100.00;101974.03;6277995;22;19912;-79
2022/12/05 11:39:46;;;;;;;;;;;;;;;2.88;100.00;101961.06;6276531;22;19912;-80
2022/12/05 11:42:18;;;;;;;;;;;;;;;2.92;100.00;101962.03;6277714;22;19919;-79
2022/12/05 11:44:46;;;;;;;;;;;;;;;2.94;100.00;101960.34;6277057;22;19922;-79
2022/12/05 11:47:21;;;;;;;;;;;;;;;2.96;100.00;101962.13;6276792;22;19982;-79
2022/12/05 11:50:08;;;;;;;;;;;;;;;2.96;100.00;101951.81;6276933;22;20323;-76
2022/12/05 11:52:46;;;;;;;;;;;;;;;2.98;100.00;101959.59;6277796;22;19918;-78
2022/12/05 11:55:21;;;;;;;;;;;;;;;2.96;100.00;101962.13;6276837;22;19934;-77
2022/12/05 11:58:05;;;;;;;;;;;;;;;2.96;100.00;101959.56;6277265;22;20212;-77
2022/12/05 12:00:30;;;;;;;;;;;;;;;2.95;100.00;101962.97;6276866;22;19938;-78
2022/12/05 12:03:01;;;;;;;;;;;;;;;2.93;100.00;101953.44;6276142;22;20316;-80
2022/12/05 12:05:36;;;;;;;;;;;;;;;2.92;100.00;101957.75;6277713;22;19911;-79
2022/12/05 12:08:15;;;;;;;;;;;;;;;2.90;100.00;101963.69;6276359;22;19962;-80
2022/12/05 12:10:47;;;;;;;;;;;;;;;2.88;100.00;101960.19;6276706;22;20319;-80
2022/12/05 12:13:30;;;;;;;;;;;;;;;2.86;100.00;101970.44;6276851;22;20219;-79
2022/12/05 12:16:16;;;;;;;;;;;;;;;2.81;100.00;101962.63;6275984;22;19911;-80
2022/12/05 12:18:53;;;;;;;;;;;;;;;2.81;100.00;101959.16;6277272;22;19916;-80
2022/12/05 12:21:25;;;;;;;;;;;;;;;2.78;100.00;101969.41;6277577;22;19918;-80
2022/12/05 12:24:03;;;;;;;;;;;;;;;2.76;100.00;101965.91;6276363;22;19938;-80
2022/12/05 12:26:46;;;;;;;;;;;;;;;2.75;100.00;101965.03;6277050;22;19985;-80
2022/12/05 12:29:14;;;;;;;;;;;;;;;2.78;100.00;101967.69;6276383;22;19939;-79
2022/12/05 12:31:58;;;;;;;;;;;;;;;2.78;100.00;101962.53;6276954;22;19922;-79
2022/12/05 12:34:34;;;;;;;;;;;;;;;2.81;100.00;101961.72;6277370;22;19911;-80
2022/12/05 12:37:06;;;;;;;;;;;;;;;2.85;100.00;101962.69;6275959;22;19922;-80
2022/12/05 12:39:35;;;;;;;;;;;;;;;2.86;100.00;101957.56;6276880;22;19943;-80
2022/12/05 12:42:18;;;;;;;;;;;;;;;2.89;100.00;101955.09;6276454;22;19915;-80
2022/12/05 12:44:46;;;;;;;;;;;;;;;2.91;100.00;101956.00;6275643;22;19919;-80
2022/12/05 12:47:38;;;;;;;;;;;;;;;2.92;100.00;101947.44;6276820;22;19911;-80
2022/12/05 12:50:16;;;;;;;;;;;;;;;2.91;100.00;101956.00;6259228;22;19911;-80